Flight Track Log - Related Links

Times and Time Zones

All times are in EDT time to prevent confusion due to time zone crossing. See the ASA653 flight status page for this flight to view local times or setup timezone preferences in your user account.

Time Position Orientation Groundspeed Altitude Reporting Facility
EDT Latitude Longitude Course Direction KTS MPH feet Rate Location/Type
Sun 01:30:28 PM 33.4333 -112.0333 270° West 172 198 1,800  Level Phoenix TRACON
Sun 01:31:16 PM 33.4333 -112.0833 270° West 216 249 3,500 1,904 Climbing Phoenix TRACON
Sun 01:32:12 PM 33.4342 -112.1475 271° West 233 268 5,100 2,898 Climbing Albuquerque Center
Sun 01:33:14 PM 33.4989 -112.1900 331° Northwest 278 320 9,200 3,000 Climbing Albuquerque Center
Sun 01:34:16 PM 33.5683 -112.1378 32° Northeast 299 344 11,300 1,742 Climbing Albuquerque Center
Sun 01:35:18 PM 33.6492 -112.0697 35° Northeast 353 406 12,800 2,081 Climbing Albuquerque Center
Sun 01:36:20 PM 33.7386 -111.9939 35° Northeast 390 449 15,600 2,200 Climbing Albuquerque Center
Sun 01:38:18 PM 33.9314 -111.8331 35° Northeast 418 481 19,400 1,967 Climbing Los Angeles Center
Sun 01:39:20 PM 34.0381 -111.8342 360° North 391 450 21,500 2,032 Climbing Los Angeles Center
Sun 01:40:22 PM 34.1456 -111.8508 353° North 383 441 23,600 1,790 Climbing Los Angeles Center
Sun 01:41:24 PM 34.2514 -111.8683 352° North 383 441 25,200 1,440 Climbing Los Angeles Center
Sun 01:42:27 PM 34.3572 -111.8850 353° North 384 442 26,600 1,344 Climbing Los Angeles Center
Sun 01:43:29 PM 34.4667 -111.9025 352° North 391 450 28,000 1,548 Climbing Los Angeles Center
Sun 01:44:31 PM 34.5972 -111.9244 352° North 397 457 29,800 1,615 Climbing Los Angeles Center
Sun 01:45:39 PM 34.7069 -111.9431 352° North 395 455 31,500 1,754 Climbing Albuquerque Center
Sun 01:46:41 PM 34.8308 -111.9614 353° North 386 444 33,600 1,210 Climbing Albuquerque Center
Sun 01:47:43 PM 34.9294 -111.9783 352° North 369 425 34,000 194 Climbing Albuquerque Center
Sun 01:48:45 PM 35.0300 -111.9953 352° North 368 423 34,000  Level Albuquerque Center
Sun 01:49:47 PM 35.1306 -112.0111 353° North 368 423 34,000  Level Albuquerque Center
Sun 01:50:50 PM 35.2303 -112.0264 353° North 367 422 34,000  Level Albuquerque Center
Sun 01:51:52 PM 35.3494 -112.0458 352° North 366 421 34,000  Level Albuquerque Center
Sun 01:52:48 PM 35.4289 -112.0586 353° North 364 419 34,000  Level Los Angeles Center
Sun 01:53:50 PM 35.5481 -112.0781 352° North 364 419 34,000  Level Los Angeles Center
Sun 01:54:53 PM 35.6475 -112.0939 353° North 364 419 34,000  Level Los Angeles Center
Sun 01:55:55 PM 35.7469 -112.1108 352° North 364 419 34,000 48 Level Los Angeles Center
Sun 01:56:57 PM 35.8464 -112.1264 353° North 363 418 34,100 677 Climbing Los Angeles Center
Sun 01:57:59 PM 35.9444 -112.1444 352° North 362 417 35,400 919 Climbing Los Angeles Center
Sun 01:59:01 PM 36.0475 -112.2000 336° Northwest 340 391 36,000 290 Climbing Los Angeles Center
Sun 02:00:03 PM 36.1319 -112.2542 333° Northwest 344 396 36,000  Level Los Angeles Center
Sun 02:01:06 PM 36.2217 -112.3086 334° Northwest 344 396 36,000  Level Los Angeles Center
Sun 02:02:08 PM 36.3086 -112.3622 334° Northwest 345 397 36,000  Level Los Angeles Center
Sun 02:03:10 PM 36.3969 -112.4175 333° Northwest 352 405 36,000  Level Los Angeles Center
Sun 02:04:12 PM 36.4844 -112.4725 333° Northwest 352 405 36,000  Level Los Angeles Center
Sun 02:05:14 PM 36.5889 -112.5400 333° Northwest 352 405 36,000  Level Los Angeles Center
Sun 02:06:16 PM 36.6758 -112.5942 333° Northwest 351 404 36,000  Level Los Angeles Center
Sun 02:07:18 PM 36.7636 -112.6494 333° Northwest 352 405 36,000  Level Los Angeles Center
Sun 02:08:21 PM 36.8508 -112.7042 333° Northwest 351 404 36,000  Level Los Angeles Center
Sun 02:09:23 PM 36.9369 -112.7611 332° Northwest 351 404 36,000  Level Los Angeles Center
Sun 02:10:25 PM 37.0439 -112.8286 333° Northwest 356 410 36,000  Level Los Angeles Center
Sun 02:11:27 PM 37.1317 -112.8858 333° Northwest 356 410 36,000  Level Los Angeles Center
Sun 02:12:29 PM 37.2211 -112.9422 333° Northwest 356 410 36,000  Level Los Angeles Center
Sun 02:13:31 PM 37.3094 -113.0008 332° Northwest 356 410 36,000  Level Los Angeles Center
Sun 02:14:34 PM 37.3989 -113.0581 333° Northwest 357 411 36,000  Level Los Angeles Center
Sun 02:15:36 PM 37.4892 -113.1175 332° Northwest 357 411 36,000  Level Los Angeles Center
Sun 02:16:38 PM 37.5800 -113.1764 333° Northwest 359 413 36,000  Level Los Angeles Center
Sun 02:17:40 PM 37.6697 -113.2350 333° Northwest 359 413 36,000  Level Los Angeles Center
Sun 02:18:42 PM 37.7750 -113.3050 332° Northwest 358 412 36,000  Level Los Angeles Center
Sun 02:19:44 PM 37.8600 -113.3622 332° Northwest 346 398 36,000  Level Los Angeles Center
Sun 02:20:47 PM 37.9383 -113.4328 325° Northwest 346 398 36,000  Level Los Angeles Center
Sun 02:22:11 PM 38.0517 -113.5283 326° Northwest 346 398 36,000  Level Salt Lake Center
Sun 02:23:13 PM 38.1317 -113.5981 326° Northwest 347 399 36,000  Level Salt Lake Center
Sun 02:24:15 PM 38.2117 -113.6661 326° Northwest 347 399 36,000  Level Salt Lake Center
Sun 02:25:17 PM 38.3072 -113.7475 326° Northwest 347 399 36,000  Level Salt Lake Center
Sun 02:26:19 PM 38.3858 -113.8156 326° Northwest 346 398 36,000  Level Salt Lake Center
Sun 02:27:21 PM 38.4611 -113.8817 325° Northwest 335 386 36,000  Level Salt Lake Center
Sun 02:28:23 PM 38.5358 -113.9467 326° Northwest 329 379 36,000  Level Salt Lake Center
Sun 02:29:25 PM 38.6117 -114.0128 326° Northwest 327 376 36,000  Level Salt Lake Center
Sun 02:30:27 PM 38.6872 -114.0797 325° Northwest 328 377 36,000  Level Salt Lake Center
Sun 02:31:29 PM 38.7628 -114.1444 326° Northwest 329 379 36,000  Level Salt Lake Center
Sun 02:32:31 PM 38.8542 -114.2258 325° Northwest 330 380 36,000  Level Salt Lake Center
Sun 02:33:33 PM 38.9294 -114.2939 325° Northwest 330 380 36,000  Level Salt Lake Center
Sun 02:34:35 PM 39.0075 -114.3619 326° Northwest 333 383 36,000  Level Salt Lake Center
Sun 02:35:37 PM 39.0836 -114.4283 326° Northwest 333 383 36,000  Level Salt Lake Center
Sun 02:36:39 PM 39.1617 -114.4969 326° Northwest 334 384 36,000  Level Salt Lake Center
Sun 02:37:41 PM 39.2453 -114.5750 324° Northwest 334 384 36,000  Level Salt Lake Center
Sun 02:38:43 PM 39.3208 -114.6406 326° Northwest 338 389 36,000  Level Salt Lake Center
Sun 02:39:45 PM 39.4081 -114.7192 325° Northwest 340 391 36,000  Level Salt Lake Center
Sun 02:40:47 PM 39.4844 -114.7856 326° Northwest 342 394 36,000  Level Salt Lake Center
Sun 02:41:49 PM 39.5717 -114.8661 325° Northwest 343 395 36,000  Level Salt Lake Center
Sun 02:42:51 PM 39.6475 -114.9331 326° Northwest 343 395 36,000  Level Salt Lake Center
Sun 02:43:53 PM 39.7344 -115.0131 325° Northwest 343 395 36,000  Level Salt Lake Center
Sun 02:44:55 PM 39.8097 -115.0817 325° Northwest 343 395 36,000  Level Salt Lake Center
Sun 02:45:57 PM 39.8972 -115.1617 325° Northwest 343 395 36,000  Level Salt Lake Center
Sun 02:46:59 PM 39.9731 -115.2314 325° Northwest 344 396 36,000  Level Salt Lake Center
Sun 02:48:01 PM 40.0592 -115.3117 324° Northwest 344 396 36,000  Level Salt Lake Center
Sun 02:49:03 PM 40.1358 -115.3800 326° Northwest 344 396 36,000  Level Salt Lake Center
Sun 02:50:05 PM 40.2125 -115.4506 325° Northwest 348 400 36,000  Level Salt Lake Center
Sun 02:51:07 PM 40.2997 -115.5319 325° Northwest 348 400 36,000  Level Salt Lake Center
Sun 02:52:09 PM 40.3761 -115.6028 325° Northwest 348 400 36,000  Level Salt Lake Center
Sun 02:53:10 PM 40.4656 -115.6867 324° Northwest 349 402 36,000  Level Salt Lake Center
Sun 02:54:12 PM 40.5411 -115.7581 324° Northwest 350 403 36,000  Level Salt Lake Center
Sun 02:55:14 PM 40.6333 -115.8436 325° Northwest 361 415 36,000 -484 Level Salt Lake Center
Sun 02:56:16 PM 40.7111 -115.9167 325° Northwest 361 415 35,000 -968 Descending Salt Lake Center
Sun 02:57:18 PM 40.8022 -116.0039 324° Northwest 361 415 34,000 -484 Descending Salt Lake Center
Sun 02:58:20 PM 40.8797 -116.0767 325° Northwest 361 415 34,000  Level Salt Lake Center
Sun 02:59:22 PM 40.9689 -116.1611 324° Northwest 359 413 34,000  Level Salt Lake Center
Sun 03:00:24 PM 41.0447 -116.2331 324° Northwest 355 409 34,000  Level Salt Lake Center
Sun 03:01:26 PM 41.1331 -116.3192 324° Northwest 354 407 34,000  Level Salt Lake Center
Sun 03:02:28 PM 41.2108 -116.3931 324° Northwest 354 407 34,000  Level Salt Lake Center
Sun 03:04:32 PM 41.3803 -116.5583 324° Northwest 362 417 34,000  Level Salt Lake Center
Sun 03:05:33 PM 41.4589 -116.6328 325° Northwest 362 417 34,000  Level Salt Lake Center
Sun 03:06:35 PM 41.5506 -116.7219 324° Northwest 362 417 34,000  Level Salt Lake Center
Sun 03:07:37 PM 41.6286 -116.7983 324° Northwest 363 418 34,000  Level Salt Lake Center
Sun 03:08:39 PM 41.7228 -116.8900 324° Northwest 367 422 34,000  Level Salt Lake Center
Sun 03:09:41 PM 41.8042 -116.9689 324° Northwest 375 432 34,000  Level Salt Lake Center
Sun 03:10:43 PM 41.8986 -117.0611 324° Northwest 376 433 34,000  Level Salt Lake Center
Sun 03:11:45 PM 41.9797 -117.1400 324° Northwest 376 433 34,000  Level Salt Lake Center
Sun 03:12:47 PM 42.0744 -117.2361 323° Northwest 379 436 34,000  Level Salt Lake Center
Sun 03:13:48 PM 42.1561 -117.3169 324° Northwest 379 436 34,000  Level Salt Lake Center
Sun 03:14:50 PM 42.2361 -117.3994 323° Northwest 379 436 34,000  Level Salt Lake Center
Sun 03:15:52 PM 42.3258 -117.4869 324° Northwest 378 435 34,000  Level Salt Lake Center
Sun 03:16:54 PM 42.4097 -117.5728 323° Northwest 378 435 34,000  Level Salt Lake Center
Sun 03:17:56 PM 42.4950 -117.6583 324° Northwest 379 436 34,000  Level Salt Lake Center
Sun 03:18:58 PM 42.5950 -117.7600 323° Northwest 377 434 34,000  Level Salt Lake Center
Sun 03:20:00 PM 42.6800 -117.8464 323° Northwest 378 435 34,000  Level Salt Lake Center
Sun 03:21:01 PM 42.7656 -117.9331 323° Northwest 380 437 34,000  Level Salt Lake Center
Sun 03:22:03 PM 42.8508 -118.0222 323° Northwest 384 442 34,000  Level Salt Lake Center
Sun 03:23:05 PM 42.9369 -118.1089 324° Northwest 384 442 34,000  Level Salt Lake Center
Sun 03:24:07 PM 43.0253 -118.2017 322° Northwest 393 452 34,000  Level Salt Lake Center
Sun 03:25:09 PM 43.1261 -118.3061 323° Northwest 394 453 34,000  Level Salt Lake Center
Sun 03:26:11 PM 43.2136 -118.3956 323° Northwest 394 453 34,000  Level Salt Lake Center
Sun 03:27:13 PM 43.3006 -118.4878 322° Northwest 394 453 34,000  Level Salt Lake Center
Sun 03:28:14 PM 43.3869 -118.5794 322° Northwest 394 453 34,000  Level Salt Lake Center
Sun 03:29:16 PM 43.4744 -118.6694 323° Northwest 392 451 34,000  Level Salt Lake Center
Sun 03:30:18 PM 43.5619 -118.7628 322° Northwest 394 453 34,000  Level Salt Lake Center
Sun 03:31:20 PM 43.6678 -118.8739 323° Northwest 396 456 34,000  Level Salt Lake Center
Sun 03:32:22 PM 43.7561 -118.9667 323° Northwest 396 456 34,000  Level Salt Lake Center
Sun 03:33:23 PM 43.8439 -119.0614 322° Northwest 397 457 34,000  Level Salt Lake Center
Sun 03:34:25 PM 43.9308 -119.1550 322° Northwest 397 457 34,000  Level Salt Lake Center
Sun 03:35:27 PM 44.0194 -119.2506 322° Northwest 400 460 34,000  Level Salt Lake Center
Sun 03:36:29 PM 44.1083 -119.3444 323° Northwest 400 460 34,000  Level Salt Lake Center
Sun 03:37:31 PM 44.1972 -119.4417 322° Northwest 401 461 34,000  Level Salt Lake Center
Sun 03:38:32 PM 44.3025 -119.5567 322° Northwest 401 461 34,000  Level Salt Lake Center
Sun 03:39:34 PM 44.3908 -119.6519 322° Northwest 401 461 34,000  Level Salt Lake Center
Sun 03:40:44 PM 44.4967 -119.7686 322° Northwest 402 463 34,000  Level Seattle Center
Sun 03:41:45 PM 44.5844 -119.8661 322° Northwest 402 463 34,000  Level Seattle Center
Sun 03:42:46 PM 44.6731 -119.9639 322° Northwest 402 463 34,000 -49 Level Seattle Center
Sun 03:43:47 PM 44.7617 -120.0625 322° Northwest 403 464 33,900 -541 Descending Seattle Center
Sun 03:44:48 PM 44.8497 -120.1631 321° Northwest 404 465 32,900 -984 Descending Seattle Center
Sun 03:45:49 PM 44.9408 -120.2644 322° Northwest 409 471 31,900 -992 Descending Seattle Center
Sun 03:46:49 PM 45.0297 -120.3647 321° Northwest 408 470 30,900 -984 Descending Seattle Center
Sun 03:47:51 PM 45.1194 -120.4686 321° Northwest 412 474 29,900 -1,426 Descending Seattle Center
Sun 03:48:51 PM 45.1881 -120.5772 312° West 377 434 28,000 -2,083 Descending Seattle Center
Sun 03:49:52 PM 45.2356 -120.7006 299° West 358 412 25,700 -2,066 Descending Seattle Center
Sun 03:50:53 PM 45.2800 -120.8158 299° West 338 389 23,800 -1,820 Descending Seattle Center
Sun 03:51:54 PM 45.3214 -120.9233 299° West 316 364 22,000 -1,672 Descending Seattle Center
Sun 03:52:55 PM 45.3622 -121.0294 299° West 307 353 20,400 -1,623 Descending Seattle Center
Sun 03:53:56 PM 45.4014 -121.1342 298° West 305 351 18,700 -1,686 Descending Seattle Center
Sun 03:54:56 PM 45.4369 -121.2411 295° West 302 348 17,000 -1,792 Descending Seattle Center
Sun 03:55:13 PM 45.4456 -121.2883 285° West 298 343 16,400 -1,574 Descending Seattle Center
Sun 03:55:57 PM 45.4572 -121.3558 284° West 297 342 15,400 -1,543 Descending Seattle Center
Sun 03:56:58 PM 45.4811 -121.4675 287° West 297 342 13,700 -1,714 Descending Seattle Center
Sun 03:58:03 PM 45.5058 -121.6028 285° West 282 325 11,800 -1,721 Descending Seattle Center
Sun 03:59:00 PM 45.5278 -121.7039 287° West 271 312 10,200 -1,220 Descending Seattle Center
Sun 04:00:01 PM 45.5247 -121.7953 267° West 230 265 9,400 -934 Descending Seattle Center
Sun 04:01:02 PM 45.5178 -121.8781 263° West 210 242 8,300 -1,230 Descending Seattle Center
Sun 04:02:03 PM 45.5094 -121.9611 262° West 210 242 6,900 -1,190 Descending Seattle Center
Sun 04:03:03 PM 45.5006 -122.0447 261° West 215 247 5,900 -744 Descending Seattle Center
Sun 04:04:04 PM 45.4914 -122.1364 262° West 216 249 5,400 -774 Descending Seattle Center
Sun 04:05:07 PM 45.4800 -122.2189 259° West 216 249 4,300 -836 Descending Seattle Center
Sun 04:06:06 PM 45.4733 -122.2986 263° West 204 235 3,700 -500 Descending Seattle Center
Sun 04:07:07 PM 45.4942 -122.3628 295° West 178 205 3,300 -615 Descending Seattle Center
Sun 04:08:03 PM 45.5142 -122.4178 297° West 165 190 2,500 -738 Descending Seattle Center
Sun 04:09:09 PM 45.5383 -122.4756 301° West 161 185 1,800 -762 Descending Seattle Center
Sun 04:10:09 PM 45.5603 -122.5325 299° West 158 182 900 -879 Descending Seattle Center
Sun 04:11:05 PM 45.5775 -122.5800 297° West 146 168 100 -393 Descending Seattle Center
Sun 04:12:11 PM 45.5997 -122.6342 300° West 149 171 100  Level Seattle Center
Sun 04:14:00 PM 45.5887 -122.5969 90° East  Level Estimated
Sun 04:21:00 PM 45.5887 -122.5969 90° East  Level Estimated

Login

Don't have an account? Register now (free) for customized features, flight alerts, and more!